createdAt,value
2018-07-15T00:00:27.951Z,69.55
2018-07-15T00:02:59.477Z,69.69
2018-07-15T00:05:30.978Z,70.54
2018-07-15T00:08:02.930Z,70.69
2018-07-15T00:10:47.454Z,70.37
2018-07-15T00:13:20.746Z,70.46
2018-07-15T00:15:52.386Z,70.78
2018-07-15T00:18:24.005Z,70.62
2018-07-15T00:20:59.005Z,70.51
2018-07-15T00:23:28.959Z,70.37
2018-07-15T00:26:00.615Z,70.47
2018-07-15T00:28:34.001Z,70.74
2018-07-15T00:31:06.396Z,71.12
2018-07-15T00:33:36.302Z,71.31
2018-07-15T00:36:09.394Z,71.35
2018-07-15T00:38:42.597Z,71.30
2018-07-15T00:41:16.069Z,71.16
2018-07-15T00:43:49.107Z,71.36
2018-07-15T00:46:22.241Z,71.31
2018-07-15T00:48:53.764Z,71.35
2018-07-15T00:51:23.720Z,71.28
2018-07-15T00:53:54.435Z,71.41
2018-07-15T00:56:26.007Z,71.56
2018-07-15T00:58:58.832Z,71.43
2018-07-15T01:01:33.124Z,71.23
2018-07-15T01:04:08.344Z,71.63
2018-07-15T01:06:40.704Z,72.00
2018-07-15T01:09:13.904Z,71.69
2018-07-15T01:11:48.889Z,71.83
2018-07-15T01:14:23.290Z,72.47
2018-07-15T01:16:54.806Z,72.38
2018-07-15T01:19:26.487Z,72.23
2018-07-15T01:21:57.915Z,72.40
2018-07-15T01:24:31.515Z,72.41
2018-07-15T01:27:04.488Z,72.32
2018-07-15T01:29:37.578Z,72.35
2018-07-15T01:32:09.952Z,72.32
2018-07-15T01:34:44.249Z,72.21
2018-07-15T01:37:17.298Z,72.09
2018-07-15T01:39:47.393Z,72.06
2018-07-15T01:42:21.162Z,72.47
2018-07-15T01:44:52.641Z,72.48
2018-07-15T01:47:26.032Z,72.35
2018-07-15T01:49:59.350Z,72.07
2018-07-15T01:52:29.438Z,72.15
2018-07-15T01:55:00.848Z,72.59
2018-07-15T01:57:32.658Z,72.72
2018-07-15T02:00:05.750Z,72.32
2018-07-15T02:02:37.450Z,72.49
2018-07-15T02:05:09.558Z,73.07
2018-07-15T02:07:42.580Z,73.41
2018-07-15T02:10:15.465Z,73.50
2018-07-15T02:12:45.472Z,73.90
2018-07-15T02:15:17.024Z,73.91
2018-07-15T02:17:48.559Z,74.02
2018-07-15T02:20:18.697Z,73.93
2018-07-15T02:22:50.251Z,74.20
2018-07-15T02:25:23.614Z,74.25
2018-07-15T02:27:56.696Z,74.60
2018-07-15T02:30:28.474Z,74.91
2018-07-15T02:33:00.569Z,74.66
2018-07-15T02:35:33.436Z,74.75
2018-07-15T02:38:07.996Z,75.00
2018-07-15T02:40:39.627Z,75.24
2018-07-15T02:43:12.482Z,74.83
2018-07-15T02:45:47.125Z,74.73
2018-07-15T02:48:18.641Z,74.52
2018-07-15T02:50:50.274Z,73.89
2018-07-15T02:53:23.405Z,73.73
2018-07-15T02:55:55.082Z,73.46
2018-07-15T02:58:29.503Z,73.84
2018-07-15T03:01:01.021Z,74.11
2018-07-15T03:03:33.259Z,74.27
2018-07-15T03:06:08.369Z,74.33
2018-07-15T03:08:41.258Z,74.17
2018-07-15T03:11:12.895Z,74.40
2018-07-15T03:13:44.387Z,74.51
2018-07-15T03:16:18.142Z,74.75
2018-07-15T03:18:51.555Z,74.94
2018-07-15T03:21:21.643Z,74.81
2018-07-15T03:23:53.506Z,74.74
2018-07-15T03:26:26.790Z,74.62
2018-07-15T03:28:56.808Z,74.59
2018-07-15T03:31:29.884Z,74.28
2018-07-15T03:33:59.871Z,74.05
2018-07-15T03:36:32.978Z,74.13
2018-07-15T03:39:07.327Z,74.16
2018-07-15T03:41:39.106Z,74.53
2018-07-15T03:44:12.214Z,74.47
2018-07-15T03:46:46.959Z,74.47
2018-07-15T03:49:18.411Z,74.02
2018-07-15T03:51:49.961Z,73.37
2018-07-15T03:54:23.519Z,72.13
2018-07-15T03:56:54.947Z,70.77
2018-07-15T03:59:28.927Z,69.74
2018-07-15T04:02:03.506Z,68.18
2018-07-15T04:04:35.854Z,66.15
2018-07-15T04:07:10.752Z,64.26
2018-07-15T04:09:40.803Z,62.32
2018-07-15T04:12:13.881Z,60.60
2018-07-15T04:14:46.090Z,60.13
2018-07-15T04:17:18.946Z,60.12
2018-07-15T04:19:48.972Z,60.28
2018-07-15T04:22:21.335Z,60.46
2018-07-15T04:24:54.329Z,60.55
2018-07-15T04:27:25.996Z,59.55
2018-07-15T04:29:56.102Z,58.28
2018-07-15T04:32:29.078Z,56.84
2018-07-15T04:35:02.297Z,55.41
2018-07-15T04:37:35.201Z,53.47
2018-07-15T04:40:05.693Z,51.59
2018-07-15T04:42:38.510Z,50.88
2018-07-15T04:45:10.014Z,49.55
2018-07-15T04:47:42.873Z,49.17
2018-07-15T04:50:13.407Z,48.53
2018-07-15T04:52:46.594Z,48.50
2018-07-15T04:55:19.531Z,47.93
2018-07-15T04:57:50.892Z,46.61
2018-07-15T05:00:23.705Z,46.50
2018-07-15T05:02:55.122Z,46.48
2018-07-15T05:05:24.934Z,47.05
2018-07-15T05:07:57.849Z,46.63
2018-07-15T05:10:29.238Z,45.56
2018-07-15T05:13:00.504Z,45.25
2018-07-15T05:15:31.906Z,43.46
2018-07-15T05:18:04.950Z,42.00
2018-07-15T05:20:37.854Z,41.53
2018-07-15T05:23:11.124Z,41.54
2018-07-15T05:25:45.469Z,41.17
2018-07-15T05:28:18.441Z,40.20
2018-07-15T05:30:51.366Z,41.01
2018-07-15T05:33:24.661Z,40.24
2018-07-15T05:35:59.082Z,40.63
2018-07-15T05:38:32.139Z,40.26
2018-07-15T05:41:03.657Z,40.48
2018-07-15T05:43:35.084Z,41.32
2018-07-15T05:46:09.467Z,41.18
2018-07-15T05:48:39.956Z,40.04
2018-07-15T05:51:09.929Z,39.12
2018-07-15T05:53:41.508Z,39.93
2018-07-15T05:56:13.083Z,38.65
2018-07-15T05:58:46.041Z,39.04
2018-07-15T06:01:19.393Z,37.73
2018-07-15T06:03:49.368Z,37.76
2018-07-15T06:06:22.323Z,38.14
2018-07-15T06:08:53.806Z,38.46
2018-07-15T06:11:24.951Z,40.96
2018-07-15T06:13:57.882Z,39.44
2018-07-15T06:16:32.401Z,39.13
2018-07-15T06:19:05.335Z,39.11
2018-07-15T06:21:36.789Z,38.72
2018-07-15T06:24:08.246Z,37.78
2018-07-15T06:26:38.163Z,36.80
2018-07-15T06:29:12.550Z,36.65
2018-07-15T06:31:43.005Z,36.54
2018-07-15T06:34:15.936Z,35.82
2018-07-15T06:36:50.928Z,35.69
2018-07-15T06:39:22.499Z,34.37
2018-07-15T06:41:53.885Z,34.59
2018-07-15T06:44:26.908Z,34.84
2018-07-15T06:46:59.759Z,35.40
2018-07-15T06:49:33.140Z,34.69
2018-07-15T06:52:04.554Z,33.96
2018-07-15T06:54:37.512Z,33.56
2018-07-15T06:57:10.576Z,33.58
2018-07-15T06:59:43.387Z,34.22
2018-07-15T07:02:14.774Z,32.44
2018-07-15T07:04:48.177Z,32.07
2018-07-15T07:07:20.979Z,31.45
2018-07-15T07:09:53.878Z,31.98
2018-07-15T07:12:26.820Z,32.52
2018-07-15T07:15:00.203Z,33.27
2018-07-15T07:17:31.620Z,32.14
2018-07-15T07:20:03.084Z,33.56
2018-07-15T07:22:33.023Z,32.60
2018-07-15T07:25:04.537Z,32.33
2018-07-15T07:27:37.471Z,31.08
2018-07-15T07:30:08.909Z,31.69
2018-07-15T07:32:40.760Z,31.94
2018-07-15T07:35:13.508Z,31.95
2018-07-15T07:37:46.583Z,32.01
2018-07-15T07:40:21.889Z,34.05
2018-07-15T07:42:52.308Z,31.93
2018-07-15T07:45:24.677Z,29.12
2018-07-15T07:47:55.322Z,31.03
2018-07-15T07:50:29.611Z,30.03
2018-07-15T07:53:02.364Z,27.82
2018-07-15T07:55:35.549Z,28.76
2018-07-15T07:58:09.981Z,28.59
2018-07-15T08:00:43.013Z,29.35
2018-07-15T08:03:15.851Z,30.39
2018-07-15T08:05:50.544Z,28.90
2018-07-15T08:08:24.771Z,28.91
2018-07-15T08:10:59.343Z,27.74
2018-07-15T08:13:32.129Z,28.69
2018-07-15T08:16:03.450Z,27.38
2018-07-15T08:18:34.810Z,29.84
2018-07-15T08:21:06.213Z,26.55
2018-07-15T08:23:37.553Z,27.50
2018-07-15T08:26:10.508Z,28.63
2018-07-15T08:28:41.938Z,29.30
2018-07-15T08:31:21.215Z,28.68
2018-07-15T08:33:52.645Z,29.28
2018-07-15T08:36:26.036Z,28.93
2018-07-15T08:38:58.985Z,28.60
2018-07-15T08:41:33.465Z,27.15
2018-07-15T08:44:06.324Z,28.66
2018-07-15T08:46:39.154Z,29.52
2018-07-15T08:49:12.020Z,28.42
2018-07-15T08:51:44.883Z,26.06
2018-07-15T08:54:16.194Z,26.66
2018-07-15T08:56:47.632Z,28.29
2018-07-15T08:59:20.582Z,26.04
2018-07-15T09:01:52.123Z,26.49
2018-07-15T09:04:26.417Z,26.17
2018-07-15T09:07:00.803Z,29.55
2018-07-15T09:09:35.089Z,26.09
2018-07-15T09:12:07.937Z,27.68
2018-07-15T09:14:39.254Z,27.25
2018-07-15T09:17:12.574Z,26.68
2018-07-15T09:19:45.332Z,27.11
2018-07-15T09:22:18.339Z,27.61
2018-07-15T09:24:52.729Z,26.89
2018-07-15T09:27:23.604Z,26.74
2018-07-15T09:29:57.911Z,26.33
2018-07-15T09:32:30.957Z,27.19
2018-07-15T09:35:02.329Z,25.77
2018-07-15T09:37:33.441Z,25.20
2018-07-15T09:40:04.851Z,26.61
2018-07-15T09:42:37.837Z,26.88
2018-07-15T09:45:07.863Z,27.31
2018-07-15T09:47:42.638Z,26.74
2018-07-15T09:50:15.471Z,27.33
2018-07-15T09:52:48.368Z,26.94
2018-07-15T09:55:21.265Z,25.74
2018-07-15T09:57:51.177Z,27.81
2018-07-15T10:00:40.862Z,24.95
2018-07-15T10:03:13.675Z,25.58
2018-07-15T10:05:44.856Z,24.90
2018-07-15T10:08:16.443Z,27.42
2018-07-15T10:10:49.391Z,26.76
2018-07-15T10:13:21.361Z,27.93
2018-07-15T10:15:52.814Z,27.99
2018-07-15T10:18:22.645Z,27.55
2018-07-15T10:20:54.519Z,25.59
2018-07-15T10:23:28.911Z,28.33
2018-07-15T10:26:01.773Z,27.17
2018-07-15T10:28:33.768Z,26.55
2018-07-15T10:31:05.877Z,27.81
2018-07-15T10:33:38.707Z,25.88
2018-07-15T10:36:11.787Z,26.71
2018-07-15T10:38:46.105Z,27.91
2018-07-15T10:41:20.793Z,27.77
2018-07-15T10:43:53.782Z,27.16
2018-07-15T10:46:29.919Z,27.05
2018-07-15T10:49:02.362Z,27.24
2018-07-15T10:51:33.801Z,27.67
2018-07-15T10:54:06.943Z,27.13
2018-07-15T10:56:38.816Z,28.83
2018-07-15T10:59:11.543Z,26.84
2018-07-15T11:01:43.905Z,27.32
2018-07-15T11:04:15.352Z,27.20
2018-07-15T11:06:48.184Z,27.20
2018-07-15T11:09:22.704Z,27.71
2018-07-15T11:11:56.281Z,27.10
2018-07-15T11:14:28.539Z,27.07
2018-07-15T11:17:01.297Z,27.51
2018-07-15T11:19:32.718Z,26.23
2018-07-15T11:22:04.131Z,26.92
2018-07-15T11:24:36.989Z,27.17
2018-07-15T11:27:09.827Z,25.86
2018-07-15T11:29:44.021Z,26.69
2018-07-15T11:32:16.926Z,26.79
2018-07-15T11:34:50.657Z,26.35
2018-07-15T11:37:23.497Z,28.00
2018-07-15T11:39:53.377Z,28.28
2018-07-15T11:42:26.251Z,28.41
2018-07-15T11:45:00.705Z,28.03
2018-07-15T11:47:32.133Z,27.67
2018-07-15T11:50:02.089Z,27.73
2018-07-15T11:52:34.421Z,29.15
2018-07-15T11:55:05.996Z,27.80
2018-07-15T11:57:37.683Z,28.80
2018-07-15T12:00:11.958Z,28.46
2018-07-15T12:02:44.903Z,27.79
2018-07-15T12:05:18.198Z,28.38
2018-07-15T12:07:51.063Z,27.74
2018-07-15T12:10:24.197Z,27.19
2018-07-15T12:12:58.575Z,28.16
2018-07-15T12:15:30.253Z,27.81
2018-07-15T12:18:03.052Z,26.91
2018-07-15T12:20:35.152Z,27.86
2018-07-15T12:23:04.931Z,28.25
2018-07-15T12:25:37.894Z,27.33
2018-07-15T12:28:12.218Z,27.65
2018-07-15T12:30:44.089Z,28.27
2018-07-15T12:33:16.024Z,28.82
2018-07-15T12:35:47.515Z,28.56
2018-07-15T12:38:20.312Z,27.74
2018-07-15T12:40:51.639Z,28.50
2018-07-15T12:43:22.990Z,28.13
2018-07-15T12:45:54.346Z,28.42
2018-07-15T12:48:27.127Z,27.81
2018-07-15T12:51:00.112Z,27.85
2018-07-15T12:53:33.020Z,28.77
2018-07-15T12:56:06.189Z,27.98
2018-07-15T12:58:38.699Z,29.66
2018-07-15T13:01:10.576Z,28.94
2018-07-15T13:03:43.503Z,29.20
2018-07-15T13:06:14.873Z,27.44
2018-07-15T13:08:47.643Z,30.47
2018-07-15T13:11:20.623Z,27.74
2018-07-15T13:13:53.191Z,28.77
2018-07-15T13:16:24.802Z,27.28
2018-07-15T13:18:58.972Z,28.20
2018-07-15T13:21:33.261Z,29.08
2018-07-15T13:24:07.707Z,27.66
2018-07-15T13:26:40.621Z,27.48
2018-07-15T13:29:14.091Z,27.81
2018-07-15T13:31:45.501Z,27.44
2018-07-15T13:34:20.041Z,27.92
2018-07-15T13:36:51.358Z,27.35
2018-07-15T13:39:24.121Z,29.34
2018-07-15T13:41:58.957Z,28.60
2018-07-15T13:44:31.729Z,28.00
2018-07-15T13:47:03.041Z,27.55
2018-07-15T13:49:36.625Z,28.94
2018-07-15T13:52:09.474Z,28.99
2018-07-15T13:54:42.809Z,27.69
2018-07-15T13:57:14.607Z,27.25
2018-07-15T13:59:47.514Z,27.24
2018-07-15T14:02:20.628Z,28.09
2018-07-15T14:04:52.057Z,28.53
2018-07-15T14:07:21.916Z,27.71
2018-07-15T14:09:56.756Z,29.79
2018-07-15T14:12:27.190Z,28.68
2018-07-15T14:15:01.474Z,28.12
2018-07-15T14:17:35.795Z,27.74
2018-07-15T14:20:10.867Z,26.85
2018-07-15T14:22:42.462Z,28.84
2018-07-15T14:25:15.292Z,27.08
2018-07-15T14:27:45.632Z,27.89
2018-07-15T14:30:18.992Z,28.05
2018-07-15T14:32:51.943Z,28.33
2018-07-15T14:35:26.123Z,27.34
2018-07-15T14:37:56.031Z,29.22
2018-07-15T14:40:27.322Z,27.49
2018-07-15T14:43:00.040Z,27.51
2018-07-15T14:45:32.343Z,26.52
2018-07-15T14:48:05.196Z,27.46
2018-07-15T14:50:36.669Z,28.40
2018-07-15T14:53:09.776Z,28.30
2018-07-15T14:55:44.125Z,27.01
2018-07-15T14:58:16.981Z,26.89
2018-07-15T15:00:49.777Z,26.93
2018-07-15T15:03:21.099Z,27.53
2018-07-15T15:05:50.978Z,26.62
2018-07-15T15:08:24.081Z,25.85
2018-07-15T15:10:54.410Z,27.29
2018-07-15T15:13:27.286Z,28.73
2018-07-15T15:15:59.180Z,27.16
2018-07-15T15:18:31.057Z,26.54
2018-07-15T15:21:03.839Z,26.85
2018-07-15T15:23:35.231Z,26.44
2018-07-15T15:26:08.246Z,28.33
2018-07-15T15:28:41.235Z,26.19
2018-07-15T15:31:14.131Z,26.16
2018-07-15T15:33:48.441Z,25.37
2018-07-15T15:36:18.213Z,27.01
2018-07-15T15:38:52.509Z,25.15
2018-07-15T15:41:25.421Z,27.08
2018-07-15T15:43:55.332Z,26.12
2018-07-15T15:46:27.106Z,25.90
2018-07-15T15:49:00.037Z,27.39
2018-07-15T15:51:31.959Z,25.86
2018-07-15T15:54:06.189Z,25.85
2018-07-15T15:56:38.331Z,25.37
2018-07-15T15:59:09.603Z,25.86
2018-07-15T16:01:39.482Z,25.63
2018-07-15T16:04:13.748Z,25.62
2018-07-15T16:06:46.648Z,27.44
2018-07-15T16:09:18.134Z,30.30
2018-07-15T16:11:50.927Z,25.23
2018-07-15T16:14:23.717Z,26.78
2018-07-15T16:16:56.637Z,25.23
2018-07-15T16:19:31.135Z,26.45
2018-07-15T16:22:03.438Z,26.69
2018-07-15T16:24:36.335Z,27.02
2018-07-15T16:27:09.184Z,26.33
2018-07-15T16:29:43.471Z,27.92
2018-07-15T16:32:16.496Z,25.97
2018-07-15T16:34:50.154Z,26.18
2018-07-15T16:37:24.283Z,27.70
2018-07-15T16:39:57.210Z,25.99
2018-07-15T16:42:28.799Z,26.70
2018-07-15T16:45:01.650Z,25.52
2018-07-15T16:47:34.627Z,27.17
2018-07-15T16:50:05.987Z,26.34
2018-07-15T16:52:36.904Z,26.22
2018-07-15T16:55:10.407Z,25.28
2018-07-15T16:57:43.839Z,25.74
2018-07-15T17:00:16.705Z,27.78
2018-07-15T17:02:49.591Z,26.93
2018-07-15T17:05:20.984Z,25.99
2018-07-15T17:07:55.549Z,26.61
2018-07-15T17:10:27.141Z,27.16
2018-07-15T17:12:59.995Z,26.57
2018-07-15T17:15:33.017Z,27.67
2018-07-15T17:18:07.272Z,27.00
2018-07-15T17:20:40.402Z,27.26
2018-07-15T17:23:13.409Z,26.79
2018-07-15T17:25:46.252Z,27.73
2018-07-15T17:28:19.021Z,26.40
2018-07-15T17:30:53.428Z,26.52
2018-07-15T17:33:24.699Z,27.14
2018-07-15T17:35:57.513Z,26.55
2018-07-15T17:38:32.128Z,27.59
2018-07-15T17:41:05.376Z,28.05
2018-07-15T17:43:36.740Z,27.06
2018-07-15T17:46:08.671Z,26.90
2018-07-15T17:48:40.105Z,27.15
2018-07-15T17:51:12.057Z,26.85
2018-07-15T17:53:43.542Z,26.94
2018-07-15T17:56:16.377Z,27.96
2018-07-15T17:58:49.501Z,27.53
2018-07-15T18:01:22.558Z,28.34
2018-07-15T18:03:57.038Z,29.55
2018-07-15T18:06:31.208Z,28.08
2018-07-15T18:09:02.660Z,29.28
2018-07-15T18:11:34.618Z,29.65
2018-07-15T18:14:08.937Z,30.72
2018-07-15T18:16:44.566Z,30.92
2018-07-15T18:19:14.501Z,31.25
2018-07-15T18:21:45.902Z,31.22
2018-07-15T18:24:16.179Z,32.20
2018-07-15T18:26:46.017Z,32.63
2018-07-15T18:29:16.923Z,31.32
2018-07-15T18:31:49.756Z,32.67
2018-07-15T18:34:21.119Z,32.67
2018-07-15T18:36:54.038Z,33.12
2018-07-15T18:39:25.455Z,32.58
2018-07-15T18:41:59.786Z,32.25
2018-07-15T18:44:34.088Z,33.06
2018-07-15T18:47:05.522Z,33.23
2018-07-15T18:49:38.390Z,33.11
2018-07-15T18:52:11.286Z,33.29
2018-07-15T18:54:44.268Z,34.33
2018-07-15T18:57:15.682Z,34.15
2018-07-15T18:59:48.527Z,33.59
2018-07-15T19:02:19.876Z,33.98
2018-07-15T19:04:52.902Z,34.05
2018-07-15T19:07:26.392Z,34.19
2018-07-15T19:09:59.302Z,34.04
2018-07-15T19:12:30.014Z,34.41
2018-07-15T19:15:01.513Z,34.16
2018-07-15T19:17:34.270Z,34.24
2018-07-15T19:20:05.695Z,34.54
2018-07-15T19:22:37.201Z,34.73
2018-07-15T19:25:10.124Z,34.88
2018-07-15T19:27:44.811Z,35.58
2018-07-15T19:30:17.699Z,35.73
2018-07-15T19:32:50.999Z,35.99
2018-07-15T19:35:23.859Z,36.37
2018-07-15T19:37:55.262Z,36.94
2018-07-15T19:40:29.724Z,37.07
2018-07-15T19:43:01.927Z,36.79
2018-07-15T19:45:31.916Z,38.05
2018-07-15T19:48:05.627Z,39.40
2018-07-15T19:50:38.547Z,40.77
2018-07-15T19:53:13.005Z,44.87
2018-07-15T19:55:45.211Z,41.06
2018-07-15T19:58:19.649Z,42.19
2018-07-15T20:00:51.048Z,44.84
2018-07-15T20:03:24.326Z,41.92
2018-07-15T20:05:59.127Z,42.78
2018-07-15T20:08:32.824Z,42.02
2018-07-15T20:11:06.242Z,41.75
2018-07-15T20:13:40.635Z,41.44
2018-07-15T20:16:10.687Z,39.95
2018-07-15T20:18:42.207Z,40.53
2018-07-15T20:21:15.512Z,41.74
2018-07-15T20:23:48.534Z,42.71
2018-07-15T20:26:23.286Z,42.94
2018-07-15T20:28:56.690Z,41.02
2018-07-15T20:31:30.350Z,40.24
2018-07-15T20:34:04.881Z,40.65
2018-07-15T20:36:37.779Z,40.54
2018-07-15T20:39:10.837Z,41.45
2018-07-15T20:41:42.272Z,41.95
2018-07-15T20:44:15.196Z,42.49
2018-07-15T20:46:49.457Z,42.75
2018-07-15T20:49:23.958Z,42.60
2018-07-15T20:51:56.908Z,42.60
2018-07-15T20:54:28.997Z,42.31
2018-07-15T20:57:01.950Z,42.47
2018-07-15T20:59:33.573Z,43.18
2018-07-15T21:02:06.490Z,43.62
2018-07-15T21:04:39.376Z,45.45
2018-07-15T21:07:11.235Z,45.86
2018-07-15T21:09:42.786Z,45.57
2018-07-15T21:12:14.381Z,46.64
2018-07-15T21:14:45.799Z,46.81
2018-07-15T21:17:18.800Z,48.66
2018-07-15T21:19:51.778Z,48.87
2018-07-15T21:22:23.832Z,48.76
2018-07-15T21:24:56.931Z,48.69
2018-07-15T21:27:28.478Z,49.44
2018-07-15T21:30:02.483Z,49.53
2018-07-15T21:32:37.169Z,47.79
2018-07-15T21:35:09.894Z,47.83
2018-07-15T21:37:42.838Z,48.60
2018-07-15T21:40:16.152Z,48.02
2018-07-15T21:42:47.772Z,48.15
2018-07-15T21:45:22.146Z,48.53
2018-07-15T21:47:54.164Z,49.09
2018-07-15T21:50:25.543Z,49.85
2018-07-15T21:53:00.099Z,50.87
2018-07-15T21:55:34.509Z,51.71
2018-07-15T21:58:07.801Z,52.54
2018-07-15T22:00:39.720Z,52.65
2018-07-15T22:03:13.326Z,53.32
2018-07-15T22:05:44.894Z,53.12
2018-07-15T22:08:59.446Z,52.65
2018-07-15T22:11:32.516Z,52.22
2018-07-15T22:14:02.488Z,52.94
2018-07-15T22:16:35.877Z,53.25
2018-07-15T22:19:10.225Z,53.29
2018-07-15T22:21:44.897Z,53.86
2018-07-15T22:24:19.305Z,53.09
2018-07-15T22:26:49.354Z,53.78
2018-07-15T22:29:21.683Z,55.47
2018-07-15T22:31:56.135Z,55.73
2018-07-15T22:34:28.639Z,54.88
2018-07-15T22:37:01.517Z,55.00
2018-07-15T22:39:33.023Z,55.20
2018-07-15T22:42:07.591Z,56.76
2018-07-15T22:44:40.549Z,58.06
2018-07-15T22:47:13.729Z,57.98
2018-07-15T22:49:46.590Z,57.17
2018-07-15T22:52:18.085Z,57.94
2018-07-15T22:54:49.740Z,57.67
2018-07-15T22:57:19.683Z,58.31
2018-07-15T22:59:51.046Z,57.64
2018-07-15T23:02:25.407Z,58.00
2018-07-15T23:05:35.933Z,58.41
2018-07-15T23:08:09.454Z,57.41
2018-07-15T23:10:44.778Z,56.03
2018-07-15T23:13:19.834Z,54.90
2018-07-15T23:15:54.768Z,54.59
2018-07-15T23:18:27.918Z,54.82
2018-07-15T23:21:00.979Z,54.62
2018-07-15T23:23:32.968Z,54.29
2018-07-15T23:26:05.942Z,54.33
2018-07-15T23:28:40.512Z,53.77
2018-07-15T23:31:13.663Z,53.67
2018-07-15T23:33:47.872Z,53.54
2018-07-15T23:36:20.744Z,53.84
2018-07-15T23:38:52.220Z,53.06
2018-07-15T23:41:23.885Z,53.52
2018-07-15T23:43:57.000Z,53.87
2018-07-15T23:46:27.830Z,53.59
2018-07-15T23:48:57.914Z,53.25
2018-07-15T23:51:29.557Z,52.83
2018-07-15T23:54:03.914Z,52.78
2018-07-15T23:56:38.280Z,52.75
2018-07-15T23:59:11.358Z,52.69
